sensor_id;sensor_type;location;lat;lon;timestamp;pressure;altitude;pressure_sealevel;temperature;humidity
21433;BME280;18592;49.708;10.900;2023-02-10T00:00:22;100484.97;;;0.10;44.67
21433;BME280;18592;49.708;10.900;2023-02-10T00:02:23;100476.25;;;0.08;44.54
21433;BME280;18592;49.708;10.900;2023-02-10T00:04:25;100473.81;;;0.05;44.48
21433;BME280;18592;49.708;10.900;2023-02-10T00:06:27;100485.53;;;0.04;45.29
21433;BME280;18592;49.708;10.900;2023-02-10T00:08:29;100491.03;;;0.02;44.59
21433;BME280;18592;49.708;10.900;2023-02-10T00:10:31;100483.09;;;0.00;44.36
21433;BME280;18592;49.708;10.900;2023-02-10T00:12:36;100493.97;;;-0.01;44.24
21433;BME280;18592;49.708;10.900;2023-02-10T00:14:37;100506.78;;;-0.05;44.54
21433;BME280;18592;49.708;10.900;2023-02-10T00:16:42;100491.81;;;-0.07;44.44
21433;BME280;18592;49.708;10.900;2023-02-10T00:18:44;100492.84;;;-0.08;45.00
21433;BME280;18592;49.708;10.900;2023-02-10T00:20:45;100482.22;;;-0.10;44.36
21433;BME280;18592;49.708;10.900;2023-02-10T00:22:47;100484.19;;;-0.12;44.63
21433;BME280;18592;49.708;10.900;2023-02-10T00:24:49;100489.72;;;-0.13;44.98
21433;BME280;18592;49.708;10.900;2023-02-10T00:26:50;100497.88;;;-0.15;44.49
21433;BME280;18592;49.708;10.900;2023-02-10T00:28:52;100496.44;;;-0.19;44.53
21433;BME280;18592;49.708;10.900;2023-02-10T00:30:54;100489.53;;;-0.21;44.74
21433;BME280;18592;49.708;10.900;2023-02-10T00:32:56;100493.19;;;-0.22;44.78
21433;BME280;18592;49.708;10.900;2023-02-10T00:34:58;100501.38;;;-0.24;44.65
21433;BME280;18592;49.708;10.900;2023-02-10T00:36:59;100502.59;;;-0.28;44.26
21433;BME280;18592;49.708;10.900;2023-02-10T00:39:04;100504.47;;;-0.28;44.80
21433;BME280;18592;49.708;10.900;2023-02-10T00:41:15;100506.53;;;-0.32;45.00
21433;BME280;18592;49.708;10.900;2023-02-10T00:43:17;100510.34;;;-0.34;44.52
21433;BME280;18592;49.708;10.900;2023-02-10T00:45:19;100509.47;;;-0.35;45.12
21433;BME280;18592;49.708;10.900;2023-02-10T00:47:21;100511.59;;;-0.38;44.55
21433;BME280;18592;49.708;10.900;2023-02-10T00:49:25;100521.31;;;-0.37;44.52
21433;BME280;18592;49.708;10.900;2023-02-10T00:51:30;100517.94;;;-0.39;44.80
21433;BME280;18592;49.708;10.900;2023-02-10T00:53:33;100524.25;;;-0.40;44.53
21433;BME280;18592;49.708;10.900;2023-02-10T00:55:35;100523.53;;;-0.42;45.31
21433;BME280;18592;49.708;10.900;2023-02-10T00:57:36;100525.25;;;-0.41;45.13
21433;BME280;18592;49.708;10.900;2023-02-10T00:59:38;100535.38;;;-0.45;44.86
21433;BME280;18592;49.708;10.900;2023-02-10T01:01:41;100521.41;;;-0.48;45.33
21433;BME280;18592;49.708;10.900;2023-02-10T01:03:46;100527.59;;;-0.48;45.04
21433;BME280;18592;49.708;10.900;2023-02-10T01:05:47;100532.25;;;-0.50;44.65
21433;BME280;18592;49.708;10.900;2023-02-10T01:07:50;100527.88;;;-0.51;45.21
21433;BME280;18592;49.708;10.900;2023-02-10T01:09:54;100532.25;;;-0.50;45.39
21433;BME280;18592;49.708;10.900;2023-02-10T01:11:55;100535.91;;;-0.51;45.49
21433;BME280;18592;49.708;10.900;2023-02-10T01:14:01;100540.69;;;-0.54;44.70
21433;BME280;18592;49.708;10.900;2023-02-10T01:16:07;100532.91;;;-0.57;45.46
21433;BME280;18592;49.708;10.900;2023-02-10T01:18:13;100540.09;;;-0.58;45.30
21433;BME280;18592;49.708;10.900;2023-02-10T01:20:15;100545.59;;;-0.59;45.49
21433;BME280;18592;49.708;10.900;2023-02-10T01:22:17;100545.44;;;-0.58;44.83
21433;BME280;18592;49.708;10.900;2023-02-10T01:24:26;100546.56;;;-0.60;45.64
21433;BME280;18592;49.708;10.900;2023-02-10T01:26:30;100544.16;;;-0.63;45.19
21433;BME280;18592;49.708;10.900;2023-02-10T01:28:32;100547.94;;;-0.66;45.36
21433;BME280;18592;49.708;10.900;2023-02-10T01:30:34;100555.25;;;-0.68;45.23
21433;BME280;18592;49.708;10.900;2023-02-10T01:32:36;100557.91;;;-0.68;45.45
21433;BME280;18592;49.708;10.900;2023-02-10T01:34:41;100556.09;;;-0.68;45.45
21433;BME280;18592;49.708;10.900;2023-02-10T01:36:44;100546.38;;;-0.69;44.90
21433;BME280;18592;49.708;10.900;2023-02-10T01:38:46;100551.59;;;-0.67;44.91
21433;BME280;18592;49.708;10.900;2023-02-10T01:40:48;100547.22;;;-0.68;44.71
21433;BME280;18592;49.708;10.900;2023-02-10T01:42:53;100556.34;;;-0.71;45.40
21433;BME280;18592;49.708;10.900;2023-02-10T01:45:20;100549.31;;;-0.72;44.93
21433;BME280;18592;49.708;10.900;2023-02-10T01:47:22;100545.06;;;-0.74;45.49
21433;BME280;18592;49.708;10.900;2023-02-10T01:49:30;100551.66;;;-0.78;45.04
21433;BME280;18592;49.708;10.900;2023-02-10T01:51:44;100552.66;;;-0.79;45.15
21433;BME280;18592;49.708;10.900;2023-02-10T01:53:46;100545.56;;;-0.80;44.74
21433;BME280;18592;49.708;10.900;2023-02-10T01:55:52;100547.41;;;-0.81;44.91
21433;BME280;18592;49.708;10.900;2023-02-10T01:57:56;100545.72;;;-0.82;44.88
21433;BME280;18592;49.708;10.900;2023-02-10T02:00:00;100545.84;;;-0.83;44.87
21433;BME280;18592;49.708;10.900;2023-02-10T02:02:12;100546.94;;;-0.86;45.49
21433;BME280;18592;49.708;10.900;2023-02-10T02:04:14;100537.34;;;-0.88;45.35
21433;BME280;18592;49.708;10.900;2023-02-10T02:06:18;100541.97;;;-0.90;45.69
21433;BME280;18592;49.708;10.900;2023-02-10T02:08:38;100540.16;;;-0.90;45.57
21433;BME280;18592;49.708;10.900;2023-02-10T02:13:02;100542.38;;;-0.95;44.99
21433;BME280;18592;49.708;10.900;2023-02-10T02:15:19;100542.38;;;-0.95;45.08
21433;BME280;18592;49.708;10.900;2023-02-10T02:17:42;100545.31;;;-0.98;45.68
21433;BME280;18592;49.708;10.900;2023-02-10T02:24:51;100562.84;;;-1.05;45.33
21433;BME280;18592;49.708;10.900;2023-02-10T02:32:04;100562.00;;;-1.05;45.70
21433;BME280;18592;49.708;10.900;2023-02-10T02:34:14;100565.78;;;-1.08;45.59
21433;BME280;18592;49.708;10.900;2023-02-10T02:36:23;100554.22;;;-1.08;45.60
21433;BME280;18592;49.708;10.900;2023-02-10T02:38:27;100557.75;;;-1.08;45.59
21433;BME280;18592;49.708;10.900;2023-02-10T02:40:29;100556.06;;;-1.09;45.43
21433;BME280;18592;49.708;10.900;2023-02-10T02:42:32;100563.34;;;-1.11;45.66
21433;BME280;18592;49.708;10.900;2023-02-10T02:44:34;100566.78;;;-1.09;45.55
21433;BME280;18592;49.708;10.900;2023-02-10T02:49:00;100560.69;;;-1.11;45.81
21433;BME280;18592;49.708;10.900;2023-02-10T02:51:13;100560.09;;;-1.14;45.56
21433;BME280;18592;49.708;10.900;2023-02-10T02:57:44;100568.38;;;-1.17;45.90
21433;BME280;18592;49.708;10.900;2023-02-10T02:59:51;100561.06;;;-1.15;45.18
21433;BME280;18592;49.708;10.900;2023-02-10T03:01:57;100563.16;;;-1.19;45.60
21433;BME280;18592;49.708;10.900;2023-02-10T03:04:02;100558.78;;;-1.20;45.18
21433;BME280;18592;49.708;10.900;2023-02-10T03:06:07;100556.09;;;-1.20;45.16
21433;BME280;18592;49.708;10.900;2023-02-10T03:08:11;100559.88;;;-1.22;45.21
21433;BME280;18592;49.708;10.900;2023-02-10T03:10:13;100560.75;;;-1.22;45.19
21433;BME280;18592;49.708;10.900;2023-02-10T03:12:16;100561.84;;;-1.24;45.82
21433;BME280;18592;49.708;10.900;2023-02-10T03:14:18;100562.22;;;-1.29;45.43
21433;BME280;18592;49.708;10.900;2023-02-10T03:16:22;100564.06;;;-1.30;45.50
21433;BME280;18592;49.708;10.900;2023-02-10T03:18:24;100556.13;;;-1.31;45.63
21433;BME280;18592;49.708;10.900;2023-02-10T03:20:25;100557.84;;;-1.30;45.53
21433;BME280;18592;49.708;10.900;2023-02-10T03:22:27;100557.94;;;-1.32;45.40
21433;BME280;18592;49.708;10.900;2023-02-10T03:24:28;100558.09;;;-1.33;45.33
21433;BME280;18592;49.708;10.900;2023-02-10T03:26:30;100566.13;;;-1.33;45.74
21433;BME280;18592;49.708;10.900;2023-02-10T03:28:32;100565.25;;;-1.34;45.59
21433;BME280;18592;49.708;10.900;2023-02-10T03:30:33;100571.72;;;-1.36;45.27
21433;BME280;18592;49.708;10.900;2023-02-10T03:32:35;100571.84;;;-1.38;45.56
21433;BME280;18592;49.708;10.900;2023-02-10T03:34:37;100569.28;;;-1.39;45.74
21433;BME280;18592;49.708;10.900;2023-02-10T03:36:39;100572.94;;;-1.40;45.35
21433;BME280;18592;49.708;10.900;2023-02-10T03:38:40;100571.13;;;-1.40;45.36
21433;BME280;18592;49.708;10.900;2023-02-10T03:40:42;100565.16;;;-1.43;45.93
21433;BME280;18592;49.708;10.900;2023-02-10T03:42:53;100568.72;;;-1.43;45.52
21433;BME280;18592;49.708;10.900;2023-02-10T03:44:54;100563.47;;;-1.44;45.44
21433;BME280;18592;49.708;10.900;2023-02-10T03:46:56;100571.50;;;-1.44;45.11
21433;BME280;18592;49.708;10.900;2023-02-10T03:48:58;100571.75;;;-1.47;45.76
21433;BME280;18592;49.708;10.900;2023-02-10T03:51:01;100579.88;;;-1.49;45.54
21433;BME280;18592;49.708;10.900;2023-02-10T03:53:04;100585.25;;;-1.49;45.28
21433;BME280;18592;49.708;10.900;2023-02-10T03:55:06;100587.06;;;-1.49;45.62
21433;BME280;18592;49.708;10.900;2023-02-10T03:57:10;100582.81;;;-1.52;45.55
21433;BME280;18592;49.708;10.900;2023-02-10T03:59:12;100589.25;;;-1.54;45.91
21433;BME280;18592;49.708;10.900;2023-02-10T04:01:16;100593.63;;;-1.53;45.77
21433;BME280;18592;49.708;10.900;2023-02-10T04:03:18;100593.88;;;-1.56;45.67
21433;BME280;18592;49.708;10.900;2023-02-10T04:05:20;100602.03;;;-1.58;45.41
21433;BME280;18592;49.708;10.900;2023-02-10T04:07:22;100606.41;;;-1.57;45.72
21433;BME280;18592;49.708;10.900;2023-02-10T04:09:23;100604.81;;;-1.59;45.63
21433;BME280;18592;49.708;10.900;2023-02-10T04:11:25;100618.19;;;-1.59;45.79
21433;BME280;18592;49.708;10.900;2023-02-10T04:13:26;100608.34;;;-1.59;45.37
21433;BME280;18592;49.708;10.900;2023-02-10T04:15:28;100607.75;;;-1.62;45.61
21433;BME280;18592;49.708;10.900;2023-02-10T04:17:30;100607.63;;;-1.61;45.31
21433;BME280;18592;49.708;10.900;2023-02-10T04:19:31;100612.25;;;-1.63;45.87
21433;BME280;18592;49.708;10.900;2023-02-10T04:21:33;100614.78;;;-1.61;45.43
21433;BME280;18592;49.708;10.900;2023-02-10T04:23:35;100612.97;;;-1.61;45.63
21433;BME280;18592;49.708;10.900;2023-02-10T04:25:37;100610.44;;;-1.62;45.65
21433;BME280;18592;49.708;10.900;2023-02-10T04:27:38;100611.41;;;-1.63;45.60
21433;BME280;18592;49.708;10.900;2023-02-10T04:29:42;100623.19;;;-1.66;45.53
21433;BME280;18592;49.708;10.900;2023-02-10T04:31:44;100620.66;;;-1.67;45.42
21433;BME280;18592;49.708;10.900;2023-02-10T04:33:45;100621.75;;;-1.70;45.57
21433;BME280;18592;49.708;10.900;2023-02-10T04:35:48;100624.41;;;-1.70;45.67
21433;BME280;18592;49.708;10.900;2023-02-10T04:37:50;100616.41;;;-1.70;45.77
21433;BME280;18592;49.708;10.900;2023-02-10T04:39:53;100625.25;;;-1.69;45.67
21433;BME280;18592;49.708;10.900;2023-02-10T04:41:55;100616.50;;;-1.71;45.77
21433;BME280;18592;49.708;10.900;2023-02-10T04:44:00;100625.38;;;-1.71;45.63
21433;BME280;18592;49.708;10.900;2023-02-10T04:46:04;100629.00;;;-1.72;45.70
21433;BME280;18592;49.708;10.900;2023-02-10T04:48:09;100624.66;;;-1.73;45.38
21433;BME280;18592;49.708;10.900;2023-02-10T04:50:11;100626.47;;;-1.73;45.43
21433;BME280;18592;49.708;10.900;2023-02-10T04:52:12;100630.09;;;-1.74;45.52
21433;BME280;18592;49.708;10.900;2023-02-10T04:54:14;100625.75;;;-1.75;45.66
21433;BME280;18592;49.708;10.900;2023-02-10T04:56:16;100622.47;;;-1.79;45.63
21433;BME280;18592;49.708;10.900;2023-02-10T04:58:18;100631.47;;;-1.80;45.85
21433;BME280;18592;49.708;10.900;2023-02-10T05:00:22;100628.78;;;-1.80;45.51
21433;BME280;18592;49.708;10.900;2023-02-10T05:02:27;100639.34;;;-1.78;45.73
21433;BME280;18592;49.708;10.900;2023-02-10T05:04:28;100634.16;;;-1.80;45.85
21433;BME280;18592;49.708;10.900;2023-02-10T05:06:30;100635.22;;;-1.82;45.73
21433;BME280;18592;49.708;10.900;2023-02-10T05:08:32;100640.59;;;-1.82;45.45
21433;BME280;18592;49.708;10.900;2023-02-10T05:10:34;100640.81;;;-1.85;45.38
21433;BME280;18592;49.708;10.900;2023-02-10T05:12:36;100640.09;;;-1.87;45.68
21433;BME280;18592;49.708;10.900;2023-02-10T05:14:37;100642.75;;;-1.87;45.48
21433;BME280;18592;49.708;10.900;2023-02-10T05:16:39;100652.59;;;-1.88;45.44
21433;BME280;18592;49.708;10.900;2023-02-10T05:18:41;100645.53;;;-1.89;45.58
21433;BME280;18592;49.708;10.900;2023-02-10T05:20:43;100647.50;;;-1.91;45.69
21433;BME280;18592;49.708;10.900;2023-02-10T05:22:44;100658.19;;;-1.91;45.60
21433;BME280;18592;49.708;10.900;2023-02-10T05:24:46;100651.03;;;-1.90;45.54
21433;BME280;18592;49.708;10.900;2023-02-10T05:26:48;100651.97;;;-1.92;46.10
21433;BME280;18592;49.708;10.900;2023-02-10T05:28:50;100646.75;;;-1.93;45.51
21433;BME280;18592;49.708;10.900;2023-02-10T05:30:51;100649.31;;;-1.92;45.65
21433;BME280;18592;49.708;10.900;2023-02-10T05:32:53;100655.88;;;-1.96;45.52
21433;BME280;18592;49.708;10.900;2023-02-10T05:34:54;100656.72;;;-1.95;45.70
21433;BME280;18592;49.708;10.900;2023-02-10T05:36:56;100655.88;;;-1.96;46.09
21433;BME280;18592;49.708;10.900;2023-02-10T05:38:58;100650.53;;;-1.96;45.70
21433;BME280;18592;49.708;10.900;2023-02-10T05:41:26;100652.47;;;-1.98;45.93
21433;BME280;18592;49.708;10.900;2023-02-10T05:43:30;100663.25;;;-1.99;45.67
21433;BME280;18592;49.708;10.900;2023-02-10T05:45:31;100658.91;;;-2.00;45.50
21433;BME280;18592;49.708;10.900;2023-02-10T05:47:36;100659.72;;;-2.00;45.48
21433;BME280;18592;49.708;10.900;2023-02-10T05:49:38;100660.59;;;-1.99;45.68
21433;BME280;18592;49.708;10.900;2023-02-10T05:51:43;100666.06;;;-2.01;45.64
21433;BME280;18592;49.708;10.900;2023-02-10T05:53:44;100665.34;;;-2.03;46.09
21433;BME280;18592;49.708;10.900;2023-02-10T05:55:47;100677.47;;;-1.99;45.81
21433;BME280;18592;49.708;10.900;2023-02-10T05:57:51;100665.84;;;-1.98;46.04
21433;BME280;18592;49.708;10.900;2023-02-10T05:59:53;100667.75;;;-2.00;45.85
21433;BME280;18592;49.708;10.900;2023-02-10T06:01:55;100672.28;;;-2.00;45.92
21433;BME280;18592;49.708;10.900;2023-02-10T06:03:57;100670.69;;;-2.03;45.99
21433;BME280;18592;49.708;10.900;2023-02-10T06:05:59;100681.38;;;-2.03;45.81
21433;BME280;18592;49.708;10.900;2023-02-10T06:08:00;100683.28;;;-2.05;45.94
21433;BME280;18592;49.708;10.900;2023-02-10T06:10:02;100677.00;;;-2.04;45.98
21433;BME280;18592;49.708;10.900;2023-02-10T06:12:04;100681.38;;;-2.03;46.00
21433;BME280;18592;49.708;10.900;2023-02-10T06:14:07;100691.06;;;-2.02;45.86
21433;BME280;18592;49.708;10.900;2023-02-10T06:16:09;100691.06;;;-2.02;46.32
21433;BME280;18592;49.708;10.900;2023-02-10T06:18:12;100700.66;;;-1.99;45.90
21433;BME280;18592;49.708;10.900;2023-02-10T06:20:14;100692.41;;;-1.96;45.89
21433;BME280;18592;49.708;10.900;2023-02-10T06:22:16;100702.25;;;-1.97;45.70
21433;BME280;18592;49.708;10.900;2023-02-10T06:24:18;100701.41;;;-1.97;46.08
21433;BME280;18592;49.708;10.900;2023-02-10T06:26:19;100700.56;;;-1.98;46.01
21433;BME280;18592;49.708;10.900;2023-02-10T06:28:23;100701.16;;;-1.94;46.15
21433;BME280;18592;49.708;10.900;2023-02-10T06:30:25;100701.16;;;-1.94;46.12
21433;BME280;18592;49.708;10.900;2023-02-10T06:32:27;100710.91;;;-1.93;46.32
21433;BME280;18592;49.708;10.900;2023-02-10T06:34:28;100718.06;;;-1.94;46.07
21433;BME280;18592;49.708;10.900;2023-02-10T06:36:30;100720.84;;;-1.95;46.15
21433;BME280;18592;49.708;10.900;2023-02-10T06:38:32;100720.72;;;-1.94;46.18
21433;BME280;18592;49.708;10.900;2023-02-10T06:40:40;100716.25;;;-1.93;46.09
21433;BME280;18592;49.708;10.900;2023-02-10T06:42:45;100722.53;;;-1.94;46.04
21433;BME280;18592;49.708;10.900;2023-02-10T06:44:46;100725.84;;;-1.90;46.10
21433;BME280;18592;49.708;10.900;2023-02-10T06:46:48;100727.53;;;-1.89;46.38
21433;BME280;18592;49.708;10.900;2023-02-10T06:48:49;100732.63;;;-1.86;46.14
21433;BME280;18592;49.708;10.900;2023-02-10T06:50:51;100734.44;;;-1.87;46.31
21433;BME280;18592;49.708;10.900;2023-02-10T06:52:55;100730.69;;;-1.84;46.17
21433;BME280;18592;49.708;10.900;2023-02-10T06:54:57;100724.25;;;-1.82;46.14
21433;BME280;18592;49.708;10.900;2023-02-10T06:56:59;100718.81;;;-1.80;46.09
21433;BME280;18592;49.708;10.900;2023-02-10T06:59:00;100729.50;;;-1.80;45.98
21433;BME280;18592;49.708;10.900;2023-02-10T07:01:09;100723.16;;;-1.79;46.31
21433;BME280;18592;49.708;10.900;2023-02-10T07:03:13;100721.97;;;-1.75;45.95
21433;BME280;18592;49.708;10.900;2023-02-10T07:05:15;100729.00;;;-1.74;46.10
21433;BME280;18592;49.708;10.900;2023-02-10T07:07:17;100728.91;;;-1.73;45.85
21433;BME280;18592;49.708;10.900;2023-02-10T07:09:19;100726.31;;;-1.74;46.33
21433;BME280;18592;49.708;10.900;2023-02-10T07:11:21;100724.41;;;-1.72;46.14
21433;BME280;18592;49.708;10.900;2023-02-10T07:13:22;100732.31;;;-1.71;46.16
21433;BME280;18592;49.708;10.900;2023-02-10T07:15:24;100738.50;;;-1.70;46.54
21433;BME280;18592;49.708;10.900;2023-02-10T07:17:26;100729.50;;;-1.69;46.19
21433;BME280;18592;49.708;10.900;2023-02-10T07:19:28;100730.34;;;-1.69;46.80
21433;BME280;18592;49.708;10.900;2023-02-10T07:21:29;100733.88;;;-1.68;46.57
21433;BME280;18592;49.708;10.900;2023-02-10T07:23:31;100729.25;;;-1.66;46.75
21433;BME280;18592;49.708;10.900;2023-02-10T07:25:37;100728.06;;;-1.62;46.39
21433;BME280;18592;49.708;10.900;2023-02-10T07:27:39;100738.63;;;-1.61;46.54
21433;BME280;18592;49.708;10.900;2023-02-10T07:29:40;100734.88;;;-1.58;46.70
21433;BME280;18592;49.708;10.900;2023-02-10T07:31:45;100741.78;;;-1.56;46.61
21433;BME280;18592;49.708;10.900;2023-02-10T07:33:46;100741.56;;;-1.53;46.87
21433;BME280;18592;49.708;10.900;2023-02-10T07:35:48;100747.63;;;-1.51;46.91
21433;BME280;18592;49.708;10.900;2023-02-10T07:37:50;100740.97;;;-1.45;46.81
21433;BME280;18592;49.708;10.900;2023-02-10T07:39:52;100738.03;;;-1.42;46.71
21433;BME280;18592;49.708;10.900;2023-02-10T07:41:54;100739.50;;;-1.38;46.88
21433;BME280;18592;49.708;10.900;2023-02-10T07:44:02;100745.19;;;-1.32;47.25
21433;BME280;18592;49.708;10.900;2023-02-10T07:46:04;100740.22;;;-1.25;47.62
21433;BME280;18592;49.708;10.900;2023-02-10T07:48:05;100735.13;;;-1.17;47.38
21433;BME280;18592;49.708;10.900;2023-02-10T07:50:07;100743.38;;;-1.09;47.43
21433;BME280;18592;49.708;10.900;2023-02-10T07:52:09;100746.28;;;-1.01;46.82
21433;BME280;18592;49.708;10.900;2023-02-10T07:54:11;100743.72;;;-0.91;47.41
21433;BME280;18592;49.708;10.900;2023-02-10T07:56:13;100741.13;;;-0.82;47.29
21433;BME280;18592;49.708;10.900;2023-02-10T07:58:15;100744.03;;;-0.74;47.51
21433;BME280;18592;49.708;10.900;2023-02-10T08:00:17;100733.53;;;-0.66;47.49
21433;BME280;18592;49.708;10.900;2023-02-10T08:02:18;100743.50;;;-0.56;47.75
21433;BME280;18592;49.708;10.900;2023-02-10T08:04:20;100742.63;;;-0.46;47.58
21433;BME280;18592;49.708;10.900;2023-02-10T08:06:23;100743.41;;;-0.34;47.24
21433;BME280;18592;49.708;10.900;2023-02-10T08:08:25;100750.56;;;-0.24;47.57
21433;BME280;18592;49.708;10.900;2023-02-10T08:10:27;100741.63;;;-0.13;47.77
21433;BME280;18592;49.708;10.900;2023-02-10T08:12:32;100742.41;;;-0.02;47.10
21433;BME280;18592;49.708;10.900;2023-02-10T08:14:37;100748.56;;;0.10;47.61
21433;BME280;18592;49.708;10.900;2023-02-10T08:16:38;100746.06;;;0.18;47.77
21433;BME280;18592;49.708;10.900;2023-02-10T08:18:41;100750.66;;;0.27;47.60
21433;BME280;18592;49.708;10.900;2023-02-10T08:20:43;100748.88;;;0.37;47.87
21433;BME280;18592;49.708;10.900;2023-02-10T08:22:45;100747.22;;;0.46;47.44
21433;BME280;18592;49.708;10.900;2023-02-10T08:24:47;100750.94;;;0.54;47.85
21433;BME280;18592;49.708;10.900;2023-02-10T08:26:48;100750.44;;;0.60;47.68
21433;BME280;18592;49.708;10.900;2023-02-10T08:28:54;100742.53;;;0.69;47.20
21433;BME280;18592;49.708;10.900;2023-02-10T08:30:59;100747.13;;;0.78;47.69
21433;BME280;18592;49.708;10.900;2023-02-10T08:33:03;100752.66;;;0.86;47.85
21433;BME280;18592;49.708;10.900;2023-02-10T08:35:16;100751.97;;;0.93;46.86
21433;BME280;18592;49.708;10.900;2023-02-10T08:37:18;100752.28;;;1.00;47.42
21433;BME280;18592;49.708;10.900;2023-02-10T08:39:23;100748.91;;;1.07;47.63
21433;BME280;18592;49.708;10.900;2023-02-10T08:41:31;100755.56;;;1.13;47.90
21433;BME280;18592;49.708;10.900;2023-02-10T08:43:33;100749.63;;;1.19;47.84
21433;BME280;18592;49.708;10.900;2023-02-10T08:45:37;100758.97;;;1.24;47.91
21433;BME280;18592;49.708;10.900;2023-02-10T08:47:39;100756.63;;;1.31;47.47
21433;BME280;18592;49.708;10.900;2023-02-10T08:49:42;100755.34;;;1.35;47.78
21433;BME280;18592;49.708;10.900;2023-02-10T08:51:44;100755.94;;;1.39;48.12
21433;BME280;18592;49.708;10.900;2023-02-10T08:53:46;100759.91;;;1.44;47.37
21433;BME280;18592;49.708;10.900;2023-02-10T08:56:03;100761.31;;;1.48;47.78
21433;BME280;18592;49.708;10.900;2023-02-10T08:58:05;100757.34;;;1.52;47.71
21433;BME280;18592;49.708;10.900;2023-02-10T09:00:09;100756.94;;;1.57;47.61
21433;BME280;18592;49.708;10.900;2023-02-10T09:02:12;100761.75;;;1.63;47.51
21433;BME280;18592;49.708;10.900;2023-02-10T09:04:14;100771.09;;;1.68;47.17
21433;BME280;18592;49.708;10.900;2023-02-10T09:06:21;100772.50;;;1.72;47.06
21433;BME280;18592;49.708;10.900;2023-02-10T09:08:23;100773.06;;;1.76;47.20
21433;BME280;18592;49.708;10.900;2023-02-10T09:10:25;100786.38;;;1.77;47.21
21433;BME280;18592;49.708;10.900;2023-02-10T09:12:27;100779.88;;;1.80;47.37
21433;BME280;18592;49.708;10.900;2023-02-10T09:14:30;100777.06;;;1.81;47.59
21433;BME280;18592;49.708;10.900;2023-02-10T09:16:31;100778.59;;;1.84;47.89
21433;BME280;18592;49.708;10.900;2023-02-10T09:18:34;100782.69;;;1.88;47.44
21433;BME280;18592;49.708;10.900;2023-02-10T09:20:36;100786.66;;;1.93;47.53
21433;BME280;18592;49.708;10.900;2023-02-10T09:22:37;100782.16;;;1.94;47.71
21433;BME280;18592;49.708;10.900;2023-02-10T09:24:39;100782.56;;;1.99;47.59
21433;BME280;18592;49.708;10.900;2023-02-10T09:26:41;100782.16;;;2.04;47.53
21433;BME280;18592;49.708;10.900;2023-02-10T09:28:44;100779.88;;;2.09;47.32
21433;BME280;18592;49.708;10.900;2023-02-10T09:30:47;100785.69;;;2.14;47.14
21433;BME280;18592;49.708;10.900;2023-02-10T09:32:49;100793.47;;;2.17;47.78
21433;BME280;18592;49.708;10.900;2023-02-10T09:34:52;100788.78;;;2.19;47.48
21433;BME280;18592;49.708;10.900;2023-02-10T09:36:54;100785.13;;;2.20;47.73
21433;BME280;18592;49.708;10.900;2023-02-10T09:38:58;100788.22;;;2.25;47.50
21433;BME280;18592;49.708;10.900;2023-02-10T09:41:16;100786.09;;;2.28;47.81
21433;BME280;18592;49.708;10.900;2023-02-10T09:43:45;100787.19;;;2.35;47.92
21433;BME280;18592;49.708;10.900;2023-02-10T09:45:59;100790.19;;;2.42;47.55
21433;BME280;18592;49.708;10.900;2023-02-10T09:50:30;100796.53;;;2.50;47.66
21433;BME280;18592;49.708;10.900;2023-02-10T09:54:51;100799.34;;;2.58;47.53
21433;BME280;18592;49.708;10.900;2023-02-10T09:56:55;100798.22;;;2.61;47.45
21433;BME280;18592;49.708;10.900;2023-02-10T09:58:59;100801.31;;;2.66;47.47
21433;BME280;18592;49.708;10.900;2023-02-10T10:01:31;100808.41;;;2.67;47.63
21433;BME280;18592;49.708;10.900;2023-02-10T10:03:39;100802.44;;;2.73;47.45
21433;BME280;18592;49.708;10.900;2023-02-10T10:08:16;100807.25;;;2.79;47.30
21433;BME280;18592;49.708;10.900;2023-02-10T10:10:39;100807.66;;;2.84;47.15
21433;BME280;18592;49.708;10.900;2023-02-10T10:12:45;100809.34;;;2.85;47.52
21433;BME280;18592;49.708;10.900;2023-02-10T10:14:47;100807.34;;;2.87;47.60
21433;BME280;18592;49.708;10.900;2023-02-10T10:24:32;100804.75;;;3.05;46.98
21433;BME280;18592;49.708;10.900;2023-02-10T10:31:39;100810.09;;;3.14;47.60
21433;BME280;18592;49.708;10.900;2023-02-10T10:34:01;100812.50;;;3.17;47.45
21433;BME280;18592;49.708;10.900;2023-02-10T10:36:05;100805.09;;;3.19;47.29
21433;BME280;18592;49.708;10.900;2023-02-10T10:38:20;100802.28;;;3.21;47.47
21433;BME280;18592;49.708;10.900;2023-02-10T10:40:31;100805.66;;;3.23;47.85
21433;BME280;18592;49.708;10.900;2023-02-10T10:42:52;100815.00;;;3.29;47.10
21433;BME280;18592;49.708;10.900;2023-02-10T10:45:20;100802.06;;;3.32;47.83
21433;BME280;18592;49.708;10.900;2023-02-10T10:47:38;100808.16;;;3.34;47.80
21433;BME280;18592;49.708;10.900;2023-02-10T10:49:42;100801.59;;;3.37;47.63
21433;BME280;18592;49.708;10.900;2023-02-10T10:51:44;100790.41;;;3.41;47.71
21433;BME280;18592;49.708;10.900;2023-02-10T10:53:57;100788.22;;;3.45;47.58
21433;BME280;18592;49.708;10.900;2023-02-10T10:56:01;100795.03;;;3.49;47.47
21433;BME280;18592;49.708;10.900;2023-02-10T10:58:12;100791.03;;;3.53;47.73
21433;BME280;18592;49.708;10.900;2023-02-10T11:00:25;100783.91;;;3.52;47.95
21433;BME280;18592;49.708;10.900;2023-02-10T11:02:30;100792.56;;;3.55;47.25
21433;BME280;18592;49.708;10.900;2023-02-10T11:04:32;100793.81;;;3.61;47.36
21433;BME280;18592;49.708;10.900;2023-02-10T11:06:36;100785.25;;;3.65;47.31
21433;BME280;18592;49.708;10.900;2023-02-10T11:08:45;100786.81;;;3.68;47.63
21433;BME280;18592;49.708;10.900;2023-02-10T11:10:55;100782.09;;;3.70;47.49
21433;BME280;18592;49.708;10.900;2023-02-10T11:13:01;100781.81;;;3.73;47.37
21433;BME280;18592;49.708;10.900;2023-02-10T11:17:39;100777.41;;;3.72;47.62
21433;BME280;18592;49.708;10.900;2023-02-10T11:19:41;100782.50;;;3.75;47.63
21433;BME280;18592;49.708;10.900;2023-02-10T11:21:50;100777.50;;;3.80;47.83
21433;BME280;18592;49.708;10.900;2023-02-10T11:23:53;100774.50;;;3.83;47.83